createdAt,value
2022-08-26T00:04:50.234Z,73.23
2022-08-26T00:09:41.973Z,73.34
2022-08-26T00:14:38.989Z,73.91
2022-08-26T00:19:30.686Z,74.18
2022-08-26T00:24:22.426Z,74.11
2022-08-26T00:29:15.669Z,74.09
2022-08-26T00:34:09.424Z,74.28
2022-08-26T00:39:01.851Z,74.87
2022-08-26T00:43:53.558Z,75.07
2022-08-26T00:48:49.507Z,75.56
2022-08-26T00:53:48.038Z,75.80
2022-08-26T00:58:43.107Z,76.25
2022-08-26T01:03:37.081Z,76.79
2022-08-26T01:08:28.828Z,76.92
2022-08-26T01:13:21.284Z,77.46
2022-08-26T01:18:14.650Z,77.77
2022-08-26T01:23:09.447Z,78.09
2022-08-26T01:28:05.939Z,78.57
2022-08-26T01:33:01.487Z,79.06
2022-08-26T01:37:55.972Z,79.05
2022-08-26T01:42:49.237Z,79.03
2022-08-26T01:47:43.117Z,79.62
2022-08-26T01:52:39.595Z,79.14
2022-08-26T01:57:32.357Z,79.81
2022-08-26T02:02:24.697Z,79.78
2022-08-26T02:07:20.617Z,80.15
2022-08-26T02:12:17.152Z,79.89
2022-08-26T02:17:10.673Z,80.08
2022-08-26T02:22:06.170Z,80.44
2022-08-26T02:26:58.465Z,80.32
2022-08-26T02:31:51.986Z,80.70
2022-08-26T02:36:44.381Z,80.95
2022-08-26T02:41:44.105Z,80.88
2022-08-26T02:46:38.068Z,81.27
2022-08-26T02:51:31.690Z,81.31
2022-08-26T02:56:25.026Z,81.31
2022-08-26T03:01:32.595Z,81.02
2022-08-26T03:06:24.831Z,80.94
2022-08-26T03:11:18.707Z,81.42
2022-08-26T03:16:10.894Z,81.35
2022-08-26T03:21:12.393Z,81.50
2022-08-26T03:26:05.187Z,81.51
2022-08-26T03:30:57.966Z,81.40
2022-08-26T03:35:50.632Z,81.08
2022-08-26T03:40:43.779Z,80.75
2022-08-26T03:45:36.753Z,81.31
2022-08-26T03:50:29.160Z,81.38
2022-08-26T03:55:23.610Z,82.00
2022-08-26T04:00:24.460Z,82.04
2022-08-26T04:05:18.309Z,81.89
2022-08-26T04:10:17.130Z,82.21
2022-08-26T04:15:15.635Z,82.32
2022-08-26T04:20:08.653Z,82.32
2022-08-26T04:25:00.982Z,82.57
2022-08-26T04:29:55.277Z,82.61
2022-08-26T04:34:47.458Z,82.64
2022-08-26T04:39:39.162Z,83.21
2022-08-26T04:44:31.009Z,83.34
2022-08-26T04:49:22.623Z,83.74
2022-08-26T04:54:14.671Z,83.88
2022-08-26T04:59:16.842Z,83.73
2022-08-26T05:04:08.881Z,84.00
2022-08-26T05:09:00.540Z,84.20
2022-08-26T05:13:54.119Z,84.16
2022-08-26T05:18:46.280Z,84.37
2022-08-26T05:23:37.953Z,84.12
2022-08-26T05:28:30.038Z,84.09
2022-08-26T05:33:22.470Z,84.07
2022-08-26T05:38:19.772Z,84.13
2022-08-26T05:43:13.335Z,84.40
2022-08-26T05:48:09.385Z,84.39
2022-08-26T05:53:01.176Z,84.09
2022-08-26T05:57:53.714Z,84.32
2022-08-26T06:02:48.471Z,84.20
2022-08-26T06:07:58.795Z,84.33
2022-08-26T06:12:50.530Z,84.15
2022-08-26T06:17:43.394Z,84.57
2022-08-26T06:22:53.662Z,84.25
2022-08-26T06:27:45.321Z,83.41
2022-08-26T06:32:36.953Z,83.34
2022-08-26T06:37:28.656Z,82.65
2022-08-26T06:42:20.757Z,82.48
2022-08-26T06:47:12.347Z,81.63
2022-08-26T06:52:04.227Z,80.70
2022-08-26T06:56:57.198Z,80.93
2022-08-26T07:01:49.727Z,80.48
2022-08-26T07:06:43.114Z,80.37
2022-08-26T07:11:37.446Z,80.26
2022-08-26T07:16:29.940Z,79.67
2022-08-26T07:21:23.267Z,79.41
2022-08-26T07:26:22.229Z,79.18
2022-08-26T07:31:17.814Z,78.85
2022-08-26T07:36:12.245Z,77.22
2022-08-26T07:41:03.960Z,71.25
2022-08-26T07:45:56.094Z,69.66
2022-08-26T07:50:49.999Z,64.35
2022-08-26T07:55:43.119Z,63.52
2022-08-26T08:00:35.131Z,59.23
2022-08-26T08:05:27.588Z,55.86
2022-08-26T08:10:27.516Z,56.80
2022-08-26T08:15:24.983Z,52.66
2022-08-26T08:20:17.241Z,51.14
2022-08-26T08:25:10.517Z,49.65
2022-08-26T08:30:04.024Z,48.07
2022-08-26T08:34:57.581Z,49.00
2022-08-26T08:39:49.901Z,48.34
2022-08-26T08:44:52.067Z,49.02
2022-08-26T08:49:45.831Z,49.15
2022-08-26T08:54:37.528Z,48.86
2022-08-26T08:59:35.265Z,50.21
2022-08-26T09:05:00.875Z,50.05
2022-08-26T09:10:03.445Z,50.00
2022-08-26T09:15:04.881Z,50.58
2022-08-26T09:20:10.987Z,49.79
2022-08-26T09:25:12.209Z,49.02
2022-08-26T09:30:04.846Z,49.08
2022-08-26T09:35:04.182Z,50.13
2022-08-26T09:40:13.071Z,49.37
2022-08-26T09:45:10.649Z,44.40
2022-08-26T09:50:23.610Z,43.87
2022-08-26T09:55:23.742Z,41.97
2022-08-26T10:00:30.279Z,41.88
2022-08-26T10:05:40.614Z,40.31
2022-08-26T10:10:40.822Z,40.32
2022-08-26T10:15:49.988Z,38.58
2022-08-26T10:20:54.164Z,39.77
2022-08-26T10:25:53.670Z,38.46
2022-08-26T10:30:58.454Z,40.67
2022-08-26T10:35:53.898Z,39.40
2022-08-26T10:40:49.982Z,39.15
2022-08-26T10:45:53.498Z,40.35
2022-08-26T10:50:47.633Z,40.27
2022-08-26T10:55:42.620Z,40.74
2022-08-26T11:01:10.552Z,39.90
2022-08-26T11:06:23.859Z,36.65
2022-08-26T11:11:51.284Z,36.88
2022-08-26T11:16:45.239Z,36.69
2022-08-26T11:22:06.499Z,36.42
2022-08-26T11:26:58.152Z,36.58
2022-08-26T11:31:50.408Z,37.12
2022-08-26T11:36:42.145Z,36.63
2022-08-26T11:41:34.559Z,36.61
2022-08-26T11:46:30.573Z,37.75
2022-08-26T11:51:24.798Z,39.16
2022-08-26T11:56:37.609Z,38.70
2022-08-26T12:01:38.906Z,40.48
2022-08-26T12:06:51.986Z,41.27
2022-08-26T12:11:45.014Z,40.92
2022-08-26T12:16:39.993Z,41.48
2022-08-26T12:21:34.806Z,39.92
2022-08-26T12:26:36.065Z,40.90
2022-08-26T12:31:32.812Z,41.71
2022-08-26T12:36:35.770Z,41.72
2022-08-26T12:41:53.689Z,40.97
2022-08-26T12:46:49.160Z,41.47
2022-08-26T12:51:50.022Z,42.30
2022-08-26T12:56:41.721Z,42.00
2022-08-26T13:01:40.309Z,43.39
2022-08-26T13:06:32.667Z,43.06
2022-08-26T13:11:30.562Z,44.04
2022-08-26T13:16:23.375Z,44.88
2022-08-26T13:21:21.080Z,44.62
2022-08-26T13:26:12.908Z,46.48
2022-08-26T13:31:05.089Z,46.69
2022-08-26T13:35:57.507Z,44.28
2022-08-26T13:40:49.221Z,44.13
2022-08-26T13:45:40.914Z,45.88
2022-08-26T13:50:33.835Z,45.07
2022-08-26T13:55:27.780Z,44.79
2022-08-26T14:00:20.473Z,46.41
2022-08-26T14:05:13.437Z,44.69
2022-08-26T14:10:05.349Z,44.49
2022-08-26T14:14:57.082Z,45.74
2022-08-26T14:19:50.389Z,45.25
2022-08-26T14:24:42.024Z,45.01
2022-08-26T14:29:33.656Z,47.09
2022-08-26T14:34:28.657Z,45.59
2022-08-26T14:39:20.269Z,44.46
2022-08-26T14:44:15.013Z,44.55
2022-08-26T14:49:10.336Z,45.01
2022-08-26T14:54:14.637Z,44.68
2022-08-26T14:59:07.216Z,44.99
2022-08-26T15:04:01.223Z,45.58
2022-08-26T15:08:53.451Z,44.85
2022-08-26T15:13:45.933Z,44.86
2022-08-26T15:18:37.670Z,44.91
2022-08-26T15:23:29.660Z,45.67
2022-08-26T15:28:22.321Z,45.55
2022-08-26T15:33:15.172Z,45.96
2022-08-26T15:38:07.849Z,47.18
2022-08-26T15:43:17.715Z,47.62
2022-08-26T15:48:09.990Z,47.32
2022-08-26T15:53:01.689Z,45.97
2022-08-26T15:57:53.501Z,47.20
2022-08-26T16:02:45.175Z,46.83
2022-08-26T16:07:37.028Z,46.08
2022-08-26T16:12:28.747Z,47.14
2022-08-26T16:17:20.851Z,46.94
2022-08-26T16:22:12.772Z,47.52
2022-08-26T16:27:04.555Z,47.33
2022-08-26T16:31:56.255Z,46.50
2022-08-26T16:36:48.171Z,46.05
2022-08-26T16:41:39.920Z,46.81
2022-08-26T16:46:33.933Z,46.50
2022-08-26T16:51:27.674Z,45.81
2022-08-26T16:56:22.980Z,46.38
2022-08-26T17:01:19.728Z,46.45
2022-08-26T17:06:11.499Z,46.50
2022-08-26T17:11:03.147Z,46.86
2022-08-26T17:15:58.478Z,47.89
2022-08-26T17:20:51.995Z,47.65
2022-08-26T17:25:43.933Z,47.54
2022-08-26T17:30:35.689Z,48.36
2022-08-26T17:35:27.418Z,48.32
2022-08-26T17:40:22.556Z,48.62
2022-08-26T17:45:15.062Z,48.88
2022-08-26T17:50:09.955Z,48.14
2022-08-26T17:55:01.798Z,47.72
2022-08-26T17:59:53.936Z,48.57
2022-08-26T18:04:45.779Z,48.08
2022-08-26T18:09:37.417Z,47.82
2022-08-26T18:14:29.851Z,47.97
2022-08-26T18:19:21.502Z,48.70
2022-08-26T18:24:14.355Z,49.02
2022-08-26T18:29:07.999Z,49.33
2022-08-26T18:34:01.953Z,49.46
2022-08-26T18:38:54.632Z,49.79
2022-08-26T18:43:47.326Z,50.70
2022-08-26T18:48:40.835Z,52.08
2022-08-26T18:53:33.749Z,52.01
2022-08-26T18:58:26.133Z,53.36
2022-08-26T19:03:19.143Z,53.59
2022-08-26T19:08:11.168Z,54.05
2022-08-26T19:13:03.118Z,54.50
2022-08-26T19:17:58.450Z,55.08
2022-08-26T19:22:50.512Z,54.83
2022-08-26T19:27:42.124Z,54.21
2022-08-26T19:32:33.861Z,54.35
2022-08-26T19:37:25.527Z,54.73
2022-08-26T19:42:17.384Z,55.22
2022-08-26T19:47:10.926Z,55.40
2022-08-26T19:52:03.157Z,56.28
2022-08-26T19:56:54.800Z,56.67
2022-08-26T20:01:47.101Z,56.86
2022-08-26T20:06:53.740Z,57.17
2022-08-26T20:11:50.152Z,57.67
2022-08-26T20:16:42.392Z,58.28
2022-08-26T20:21:38.257Z,58.99
2022-08-26T20:26:32.972Z,60.24
2022-08-26T20:31:25.986Z,60.55
2022-08-26T20:36:20.559Z,60.96
2022-08-26T20:41:13.272Z,61.79
2022-08-26T20:46:08.271Z,63.19
2022-08-26T20:51:05.659Z,64.07
2022-08-26T20:56:02.051Z,65.25
2022-08-26T21:00:54.071Z,66.84
2022-08-26T21:05:45.719Z,67.78
2022-08-26T21:10:37.809Z,68.82
2022-08-26T21:15:29.716Z,69.60
2022-08-26T21:20:24.123Z,70.81
2022-08-26T21:25:16.050Z,71.51
2022-08-26T21:30:08.701Z,72.44
2022-08-26T21:35:00.493Z,72.62
2022-08-26T21:39:56.897Z,74.14
2022-08-26T21:44:52.636Z,74.31
2022-08-26T21:49:44.666Z,74.89
2022-08-26T21:54:36.388Z,75.83
2022-08-26T21:59:28.078Z,76.13
2022-08-26T22:04:20.114Z,76.53
2022-08-26T22:09:13.153Z,77.51
2022-08-26T22:14:04.937Z,77.83
2022-08-26T22:18:56.657Z,77.87
2022-08-26T22:23:48.359Z,78.00
2022-08-26T22:28:40.040Z,78.12
2022-08-26T22:33:32.214Z,78.76
2022-08-26T22:38:24.030Z,80.20
2022-08-26T22:43:16.475Z,80.32
2022-08-26T22:48:09.466Z,80.87
2022-08-26T22:53:01.674Z,80.86
2022-08-26T22:57:53.331Z,80.41
2022-08-26T23:02:45.039Z,80.78
2022-08-26T23:07:37.049Z,80.90
2022-08-26T23:12:28.775Z,80.93
2022-08-26T23:17:21.450Z,81.14
2022-08-26T23:22:13.169Z,81.02
2022-08-26T23:27:05.093Z,82.27
2022-08-26T23:31:56.829Z,82.47
2022-08-26T23:36:48.504Z,82.45
2022-08-26T23:41:40.276Z,82.31
2022-08-26T23:46:35.552Z,82.30
2022-08-26T23:51:46.134Z,82.79
2022-08-26T23:56:40.408Z,83.29
